createdAt,value
2023-01-26T00:01:29.649Z,23.90
2023-01-26T00:03:57.641Z,23.90
2023-01-26T00:06:25.529Z,26.30
2023-01-26T00:08:54.675Z,26.40
2023-01-26T00:11:30.237Z,29.60
2023-01-26T00:14:00.602Z,22.00
2023-01-26T00:16:28.495Z,26.20
2023-01-26T00:18:59.228Z,27.50
2023-01-26T00:21:29.173Z,32.60
2023-01-26T00:23:57.114Z,27.30
2023-01-26T00:26:25.637Z,29.20
2023-01-26T00:28:54.121Z,25.80
2023-01-26T00:31:27.040Z,31.90
2023-01-26T00:33:56.579Z,36.00
2023-01-26T00:36:24.377Z,25.50
2023-01-26T00:38:54.093Z,31.90
2023-01-26T00:41:40.569Z,24.90
2023-01-26T00:44:09.363Z,26.10
2023-01-26T00:46:39.568Z,31.10
2023-01-26T00:49:10.100Z,25.70
2023-01-26T00:51:37.304Z,27.40
2023-01-26T00:54:04.625Z,31.60
2023-01-26T00:56:34.539Z,27.10
2023-01-26T00:59:02.180Z,24.40
2023-01-26T01:01:29.943Z,25.90
2023-01-26T16:54:25.521Z,90.20
2023-01-26T16:56:52.611Z,73.60
2023-01-26T16:59:19.910Z,66.90
2023-01-26T17:01:47.385Z,67.40
2023-01-26T17:04:14.387Z,60.10
2023-01-26T17:06:41.694Z,57.30
2023-01-26T17:09:10.297Z,61.70
2023-01-26T17:11:37.351Z,55.60
2023-01-26T17:14:04.371Z,63.10
2023-01-26T17:16:32.707Z,63.90
2023-01-26T17:19:00.188Z,68.60
2023-01-26T17:21:27.308Z,58.20
2023-01-26T17:23:58.231Z,67.50
2023-01-26T17:26:25.551Z,71.00
2023-01-26T17:28:54.041Z,70.40
2023-01-26T17:31:21.741Z,68.80
2023-01-26T17:33:49.509Z,105.00
2023-01-26T17:36:16.782Z,58.50
2023-01-26T17:38:44.179Z,61.50
2023-01-26T17:41:11.124Z,68.90
2023-01-26T17:43:39.806Z,63.70
2023-01-26T17:46:08.598Z,67.70
2023-01-26T17:48:39.982Z,71.50
2023-01-26T17:51:08.228Z,61.70
2023-01-26T17:53:39.293Z,67.40
2023-01-26T17:56:10.582Z,63.50
2023-01-26T17:58:38.769Z,55.00
2023-01-26T18:01:11.725Z,59.10
2023-01-26T18:03:42.263Z,56.10
2023-01-26T18:06:11.441Z,60.80
2023-01-26T18:08:39.087Z,61.70
2023-01-26T18:11:09.094Z,61.20
2023-01-26T18:13:36.663Z,63.00
2023-01-26T18:16:05.335Z,54.70
2023-01-26T18:18:34.032Z,51.20
2023-01-26T18:21:22.061Z,48.70
2023-01-26T18:24:00.302Z,51.30
2023-01-26T18:26:32.486Z,56.60
2023-01-26T18:28:59.962Z,58.40
2023-01-26T18:31:29.294Z,63.30
2023-01-26T18:33:56.938Z,54.60
2023-01-26T18:36:24.596Z,51.50
2023-01-26T18:38:59.177Z,58.00
2023-01-26T18:41:26.861Z,58.40
2023-01-26T18:43:54.870Z,54.30
2023-01-26T18:46:22.000Z,53.30
2023-01-26T18:48:51.298Z,55.90
2023-01-26T18:51:18.817Z,50.00
2023-01-26T18:53:47.175Z,55.30
2023-01-26T18:56:15.686Z,54.40
2023-01-26T18:58:43.508Z,53.50
2023-01-26T19:01:14.799Z,52.50
2023-01-26T19:03:46.705Z,45.80
2023-01-26T19:06:20.132Z,51.50
2023-01-26T19:08:57.765Z,57.60
2023-01-26T19:11:38.957Z,49.70
2023-01-26T19:14:07.538Z,46.20
2023-01-26T19:16:36.166Z,50.00
2023-01-26T19:19:05.499Z,39.60
2023-01-26T19:21:36.655Z,38.20
2023-01-26T19:24:09.711Z,44.10
2023-01-26T19:26:37.305Z,46.30
2023-01-26T19:29:07.252Z,41.90
2023-01-26T19:31:34.835Z,39.30
2023-01-26T19:34:04.609Z,43.50
2023-01-26T19:36:33.117Z,40.70
2023-01-26T19:39:01.157Z,49.20
2023-01-26T19:41:29.244Z,41.80
2023-01-26T19:43:56.948Z,45.00
2023-01-26T19:46:26.327Z,37.00
2023-01-26T19:48:54.607Z,45.30
2023-01-26T19:51:25.344Z,47.60
2023-01-26T19:53:58.056Z,49.10
2023-01-26T19:56:28.055Z,44.30
2023-01-26T19:58:57.000Z,45.00
2023-01-26T20:01:35.665Z,41.60
2023-01-26T20:04:07.303Z,50.30
2023-01-26T20:06:36.712Z,45.20
2023-01-26T20:09:04.763Z,42.10
2023-01-26T20:11:32.648Z,46.40
2023-01-26T20:14:14.338Z,47.60
2023-01-26T20:19:11.016Z,45.00
2023-01-26T20:21:38.876Z,41.00
2023-01-26T20:24:15.360Z,46.80
2023-01-26T20:26:44.379Z,48.30
2023-01-26T20:29:13.256Z,48.40
2023-01-26T20:31:41.810Z,44.60
2023-01-26T20:34:12.990Z,52.40
2023-01-26T20:36:42.440Z,46.00
2023-01-26T20:39:13.240Z,45.00
2023-01-26T20:41:41.495Z,52.90
2023-01-26T20:44:08.498Z,53.30
2023-01-26T20:46:38.357Z,58.10
2023-01-26T20:49:10.899Z,47.40
2023-01-26T20:51:42.230Z,49.80
2023-01-26T20:54:11.777Z,46.30
2023-01-26T20:56:38.616Z,55.50
2023-01-26T20:59:07.034Z,47.50
2023-01-26T21:01:36.864Z,47.70
2023-01-26T21:04:04.747Z,50.00
2023-01-26T21:06:34.245Z,49.00
2023-01-26T21:09:01.759Z,46.20
2023-01-26T21:11:30.178Z,47.90
2023-01-26T21:13:58.217Z,50.10
2023-01-26T21:16:25.401Z,49.30
2023-01-26T21:18:52.602Z,46.00
2023-01-26T21:21:21.212Z,47.90
2023-01-26T21:23:50.609Z,51.80
2023-01-26T21:26:21.889Z,44.60
2023-01-26T21:29:01.623Z,45.40
2023-01-26T21:31:30.313Z,49.70
2023-01-26T21:33:59.240Z,56.30
2023-01-26T21:36:28.073Z,42.00
2023-01-26T21:38:56.134Z,49.60
2023-01-26T21:41:44.643Z,45.10
2023-01-26T21:44:21.166Z,40.70
2023-01-26T21:47:04.405Z,36.90
2023-01-26T21:49:32.013Z,36.10
2023-01-26T21:52:17.825Z,30.60
2023-01-26T21:54:45.813Z,34.90
2023-01-26T21:57:31.469Z,32.90
2023-01-26T21:59:58.478Z,35.10
2023-01-26T22:02:26.841Z,33.90
2023-01-26T22:04:55.224Z,33.60
2023-01-26T22:07:28.254Z,31.80
2023-01-26T22:09:55.271Z,32.90
2023-01-26T22:12:22.514Z,31.70
2023-01-26T22:14:51.948Z,35.20
2023-01-26T22:17:20.498Z,37.80
2023-01-26T22:19:48.963Z,30.80
2023-01-26T22:22:16.037Z,29.90
2023-01-26T22:24:43.193Z,30.50
2023-01-26T22:27:10.378Z,37.30
2023-01-26T22:29:39.359Z,31.90
2023-01-26T22:32:06.510Z,36.40
2023-01-26T22:34:35.172Z,37.80
2023-01-26T22:37:03.841Z,34.10
2023-01-26T22:39:31.684Z,33.70
2023-01-26T22:41:59.686Z,33.90
2023-01-26T22:44:27.435Z,32.70
2023-01-26T22:46:55.256Z,33.00
2023-01-26T22:49:22.178Z,31.80
2023-01-26T22:51:49.248Z,33.80
2023-01-26T22:54:16.539Z,34.00
2023-01-26T22:56:44.719Z,38.00
2023-01-26T22:59:12.044Z,33.90
2023-01-26T23:01:41.107Z,28.50
2023-01-26T23:04:08.370Z,30.20
2023-01-26T23:06:35.506Z,33.40
2023-01-26T23:09:05.151Z,31.30
2023-01-26T23:11:32.436Z,36.00
2023-01-26T23:14:00.387Z,29.60
2023-01-26T23:16:31.314Z,33.20
2023-01-26T23:18:59.316Z,28.20
2023-01-26T23:21:26.947Z,31.60
2023-01-26T23:23:54.205Z,30.40
2023-01-26T23:26:21.372Z,25.70
2023-01-26T23:28:48.280Z,25.50
2023-01-26T23:31:16.525Z,28.50
2023-01-26T23:33:43.643Z,23.90
2023-01-26T23:36:12.214Z,23.20
2023-01-26T23:38:39.419Z,17.90
2023-01-26T23:41:11.394Z,20.60
2023-01-26T23:43:39.190Z,22.40
2023-01-26T23:46:06.731Z,21.40
2023-01-26T23:48:33.878Z,20.10
2023-01-26T23:51:05.913Z,21.60
2023-01-26T23:53:34.335Z,20.10
2023-01-26T23:56:05.167Z,22.40
